createdAt,value
2018-09-29T00:01:29.091Z,100148.55
2018-09-29T00:03:57.867Z,100149.92
2018-09-29T00:06:26.520Z,100161.14
2018-09-29T00:08:55.145Z,100147.03
2018-09-29T00:11:23.917Z,100159.86
2018-09-29T00:13:52.584Z,100166.72
2018-09-29T00:16:21.325Z,100160.23
2018-09-29T00:18:49.936Z,100163.00
2018-09-29T00:21:18.590Z,100169.98
2018-09-29T00:23:47.281Z,100156.81
2018-09-29T00:26:15.936Z,100166.22
2018-09-29T00:28:44.623Z,100172.39
2018-09-29T00:31:13.407Z,100179.33
2018-09-29T00:33:42.065Z,100202.06
2018-09-29T00:36:10.707Z,100212.90
2018-09-29T00:38:39.370Z,100202.29
2018-09-29T00:41:08.066Z,100206.20
2018-09-29T00:43:36.731Z,100203.95
2018-09-29T00:46:05.414Z,100222.58
2018-09-29T00:48:34.166Z,100211.05
2018-09-29T00:51:02.826Z,100216.69
2018-09-29T00:53:31.459Z,100230.84
2018-09-29T00:56:00.172Z,100227.02
2018-09-29T00:58:32.518Z,100229.66
2018-09-29T01:01:01.211Z,100228.90
2018-09-29T01:03:29.917Z,100226.81
2018-09-29T01:05:58.607Z,100236.41
2018-09-29T01:08:27.315Z,100252.70
2018-09-29T01:10:55.986Z,100247.42
2018-09-29T01:13:24.765Z,100253.05
2018-09-29T01:15:53.455Z,100261.28
2018-09-29T01:18:22.145Z,100252.80
2018-09-29T01:20:50.978Z,100272.95
2018-09-29T01:23:19.652Z,100259.81
2018-09-29T01:25:48.354Z,100266.71
2018-09-29T01:28:17.027Z,100276.95
2018-09-29T01:30:45.724Z,100283.85
2018-09-29T01:33:14.355Z,100264.61
2018-09-29T01:35:43.039Z,100270.69
2018-09-29T01:38:11.744Z,100275.11
2018-09-29T01:40:40.438Z,100272.16
2018-09-29T01:43:09.125Z,100275.67
2018-09-29T01:45:37.808Z,100268.78
2018-09-29T01:48:06.530Z,100265.39
2018-09-29T01:50:35.227Z,100265.05
2018-09-29T01:53:03.877Z,100279.42
2018-09-29T01:58:06.375Z,100288.48
2018-09-29T02:00:35.019Z,100294.13
2018-09-29T02:03:08.966Z,100293.27
2018-09-29T02:05:37.589Z,100301.41
2018-09-29T02:08:06.472Z,100295.38
2018-09-29T02:10:35.501Z,100300.09
2018-09-29T02:13:04.148Z,100306.58
2018-09-29T02:15:33.803Z,100309.25
2018-09-29T02:18:02.474Z,100316.09
2018-09-29T02:20:31.216Z,100312.25
2018-09-29T02:22:59.891Z,100298.59
2018-09-29T02:25:28.617Z,100308.82
2018-09-29T02:27:57.299Z,100309.14
2018-09-29T02:30:25.959Z,100316.84
2018-09-29T02:32:54.597Z,100320.73
2018-09-29T02:35:23.342Z,100332.27
2018-09-29T02:37:52.088Z,100324.63
2018-09-29T02:40:20.863Z,100328.15
2018-09-29T02:42:49.496Z,100329.40
2018-09-29T02:45:18.134Z,100337.56
2018-09-29T02:47:46.781Z,100343.59
2018-09-29T02:50:15.512Z,100329.06
2018-09-29T02:52:44.193Z,100320.48
2018-09-29T02:55:12.865Z,100330.39
2018-09-29T02:57:44.390Z,100323.94
2018-09-29T03:00:13.083Z,100335.52
2018-09-29T03:02:41.757Z,100335.52
2018-09-29T03:05:10.434Z,100336.80
2018-09-29T03:07:39.103Z,100335.52
2018-09-29T03:10:07.828Z,100333.02
2018-09-29T03:12:36.461Z,100332.59
2018-09-29T03:15:05.194Z,100331.39
2018-09-29T03:17:33.885Z,100331.00
2018-09-29T03:20:02.536Z,100325.89
2018-09-29T03:22:31.246Z,100327.61
2018-09-29T03:24:59.889Z,100318.37
2018-09-29T03:27:28.525Z,100323.58
2018-09-29T03:29:57.221Z,100327.91
2018-09-29T03:32:25.878Z,100327.11
2018-09-29T03:34:54.529Z,100339.51
2018-09-29T03:37:23.171Z,100337.34
2018-09-29T03:39:51.803Z,100348.55
2018-09-29T03:42:20.489Z,100356.65
2018-09-29T03:44:49.154Z,100363.86
2018-09-29T03:47:17.794Z,100361.69
2018-09-29T03:49:46.447Z,100360.78
2018-09-29T03:52:15.130Z,100359.02
2018-09-29T03:54:43.787Z,100351.78
2018-09-29T03:57:12.420Z,100352.95
2018-09-29T03:59:41.060Z,100357.31
2018-09-29T04:02:09.755Z,100355.66
2018-09-29T04:04:38.440Z,100358.27
2018-09-29T04:07:07.173Z,100360.80
2018-09-29T04:09:35.825Z,100359.13
2018-09-29T04:12:04.502Z,100357.03
2018-09-29T04:14:33.225Z,100361.66
2018-09-29T04:17:01.977Z,100365.51
2018-09-29T04:19:30.691Z,100369.34
2018-09-29T04:21:59.346Z,100383.89
2018-09-29T04:24:28.025Z,100374.97
2018-09-29T04:26:56.658Z,100373.76
2018-09-29T04:29:25.366Z,100384.05
2018-09-29T04:31:54.046Z,100389.20
2018-09-29T04:34:22.692Z,100396.91
2018-09-29T04:36:51.378Z,100401.20
2018-09-29T04:39:20.118Z,100399.51
2018-09-29T04:41:48.793Z,100400.45
2018-09-29T04:44:17.554Z,100407.70
2018-09-29T04:46:46.239Z,100408.98
2018-09-29T04:49:14.996Z,100424.81
2018-09-29T04:51:43.638Z,100424.44
2018-09-29T04:54:12.292Z,100443.66
2018-09-29T04:56:41.022Z,100438.16
2018-09-29T04:59:10.296Z,100439.85
2018-09-29T05:01:38.977Z,100442.47
2018-09-29T05:04:07.632Z,100451.45
2018-09-29T05:06:36.372Z,100445.06
2018-09-29T05:09:06.971Z,100448.91
2018-09-29T05:11:35.669Z,100461.74
2018-09-29T05:14:04.387Z,100459.20
2018-09-29T05:16:33.084Z,100481.84
2018-09-29T05:19:01.790Z,100480.58
2018-09-29T05:21:30.555Z,100483.15
2018-09-29T05:23:59.301Z,100486.98
2018-09-29T05:26:28.002Z,100487.00
2018-09-29T05:28:56.666Z,100486.12
2018-09-29T05:31:25.348Z,100492.96
2018-09-29T05:33:54.094Z,100494.66
2018-09-29T05:36:22.747Z,100498.08
2018-09-29T05:38:51.358Z,100489.56
2018-09-29T05:41:20.015Z,100499.80
2018-09-29T05:43:48.729Z,100497.69
2018-09-29T05:46:17.387Z,100495.96
2018-09-29T05:48:46.142Z,100490.42
2018-09-29T05:51:14.829Z,100502.78
2018-09-29T05:53:43.546Z,100493.39
2018-09-29T05:56:12.234Z,100495.08
2018-09-29T05:58:40.948Z,100496.80
2018-09-29T06:01:09.639Z,100497.23
2018-09-29T06:03:38.386Z,100495.95
2018-09-29T06:06:07.218Z,100499.80
2018-09-29T06:08:36.399Z,100507.87
2018-09-29T06:11:05.063Z,100503.19
2018-09-29T06:13:33.780Z,100506.59
2018-09-29T06:16:02.574Z,100507.03
2018-09-29T06:18:31.210Z,100504.47
2018-09-29T06:20:59.973Z,100510.84
2018-09-29T06:23:28.611Z,100509.17
2018-09-29T06:25:57.316Z,100504.04
2018-09-29T06:28:26.036Z,100499.73
2018-09-29T06:30:54.713Z,100507.01
2018-09-29T06:33:23.506Z,100507.42
2018-09-29T06:35:52.238Z,100512.56
2018-09-29T06:38:21.052Z,100518.09
2018-09-29T06:40:49.848Z,100524.08
2018-09-29T06:43:18.429Z,100552.67
2018-09-29T06:45:47.138Z,100525.75
2018-09-29T06:48:15.830Z,100525.76
2018-09-29T06:50:44.499Z,100535.98
2018-09-29T06:53:13.205Z,100532.11
2018-09-29T06:55:41.903Z,100538.07
2018-09-29T06:58:10.589Z,100550.42
2018-09-29T07:00:39.353Z,100550.48
2018-09-29T07:03:08.111Z,100542.78
2018-09-29T07:05:36.756Z,100546.63
2018-09-29T07:08:05.474Z,100561.16
2018-09-29T07:10:34.139Z,100549.17
2018-09-29T07:13:02.876Z,100556.40
2018-09-29T07:15:31.535Z,100553.78
2018-09-29T07:18:00.197Z,100556.78
2018-09-29T07:20:28.946Z,100564.03
2018-09-29T07:22:57.686Z,100563.59
2018-09-29T07:25:26.419Z,100562.30
2018-09-29T07:27:55.092Z,100573.83
2018-09-29T07:30:23.880Z,100563.61
2018-09-29T07:32:52.602Z,100578.45
2018-09-29T07:35:21.303Z,100572.48
2018-09-29T07:37:49.997Z,100577.17
2018-09-29T07:40:18.757Z,100582.28
2018-09-29T07:42:47.445Z,100586.47
2018-09-29T07:45:16.222Z,100591.98
2018-09-29T07:47:44.970Z,100589.39
2018-09-29T07:50:13.748Z,100579.55
2018-09-29T07:52:42.443Z,100584.67
2018-09-29T07:55:11.114Z,100578.16
2018-09-29T07:57:39.869Z,100574.96
2018-09-29T08:00:08.755Z,100595.92
2018-09-29T08:02:37.568Z,100575.81
2018-09-29T08:05:06.424Z,100575.91
2018-09-29T08:07:35.154Z,100583.14
2018-09-29T08:10:03.945Z,100588.77
2018-09-29T08:12:32.686Z,100591.00
2018-09-29T08:15:01.584Z,100602.42
2018-09-29T08:17:30.300Z,100597.20
2018-09-29T08:19:59.117Z,100602.45
2018-09-29T08:22:27.862Z,100599.03
2018-09-29T08:24:56.584Z,100603.34
2018-09-29T08:27:25.279Z,100589.94
2018-09-29T08:29:53.970Z,100603.98
2018-09-29T08:32:22.825Z,100587.40
2018-09-29T08:34:51.556Z,100608.69
2018-09-29T08:37:20.491Z,100596.52
2018-09-29T08:39:49.274Z,100611.03
2018-09-29T08:42:17.978Z,100605.02
2018-09-29T08:44:46.841Z,100604.61
2018-09-29T08:47:15.568Z,100607.58
2018-09-29T08:49:44.330Z,100604.48
2018-09-29T08:52:13.162Z,100615.75
2018-09-29T08:54:41.863Z,100629.45
2018-09-29T08:57:10.667Z,100609.72
2018-09-29T08:59:39.407Z,100623.89
2018-09-29T09:02:08.236Z,100624.16
2018-09-29T09:04:37.009Z,100619.98
2018-09-29T09:07:06.435Z,100617.70
2018-09-29T09:09:35.313Z,100625.82
2018-09-29T09:12:03.995Z,100621.16
2018-09-29T09:14:32.702Z,100615.99
2018-09-29T09:17:01.511Z,100622.84
2018-09-29T09:19:30.175Z,100632.63
2018-09-29T09:21:58.904Z,100634.25
2018-09-29T09:24:27.586Z,100641.20
2018-09-29T09:26:56.277Z,100633.53
2018-09-29T09:29:24.998Z,100633.29
2018-09-29T09:31:53.753Z,100628.08
2018-09-29T09:34:22.496Z,100626.22
2018-09-29T09:36:51.196Z,100625.98
2018-09-29T09:39:19.985Z,100633.84
2018-09-29T09:41:48.679Z,100646.70
2018-09-29T09:44:17.458Z,100647.23
2018-09-29T09:46:46.238Z,100631.67
2018-09-29T09:49:14.952Z,100631.80
2018-09-29T09:51:43.749Z,100625.88
2018-09-29T09:54:12.442Z,100624.42
2018-09-29T09:56:41.102Z,100627.17
2018-09-29T09:59:09.852Z,100633.63
2018-09-29T10:01:43.688Z,100618.30
2018-09-29T10:04:12.457Z,100618.23
2018-09-29T10:06:41.160Z,100612.09
2018-09-29T10:09:12.042Z,100614.20
2018-09-29T10:11:40.960Z,100611.09
2018-09-29T10:14:09.701Z,100630.26
2018-09-29T10:16:38.487Z,100609.44
2018-09-29T10:19:07.306Z,100602.50
2018-09-29T10:21:36.025Z,100620.95
2018-09-29T10:24:04.829Z,100611.62
2018-09-29T10:26:33.616Z,100626.79
2018-09-29T10:29:02.340Z,100618.25
2018-09-29T10:31:31.048Z,100631.58
2018-09-29T10:33:59.803Z,100622.39
2018-09-29T10:36:28.567Z,100616.21
2018-09-29T10:38:57.263Z,100606.59
2018-09-29T10:41:26.090Z,100611.31
2018-09-29T10:43:54.815Z,100629.33
2018-09-29T10:46:23.556Z,100608.23
2018-09-29T10:48:52.243Z,100598.98
2018-09-29T10:51:20.961Z,100606.24
2018-09-29T10:53:49.673Z,100609.63
2018-09-29T10:56:18.286Z,100594.77
2018-09-29T10:58:47.022Z,100586.11
2018-09-29T11:01:15.735Z,100585.13
2018-09-29T11:03:44.446Z,100596.57
2018-09-29T11:06:13.155Z,100583.27
2018-09-29T11:08:42.004Z,100576.07
2018-09-29T11:11:10.715Z,100578.30
2018-09-29T11:13:39.464Z,100571.30
2018-09-29T11:16:08.313Z,100564.28
2018-09-29T11:18:36.974Z,100572.05
2018-09-29T11:21:06.014Z,100562.61
2018-09-29T11:23:34.696Z,100554.07
2018-09-29T11:26:03.428Z,100571.55
2018-09-29T11:28:32.081Z,100567.20
2018-09-29T11:31:00.879Z,100551.80
2018-09-29T11:33:29.568Z,100537.00
2018-09-29T11:35:58.254Z,100541.53
2018-09-29T11:38:26.873Z,100549.41
2018-09-29T11:40:55.636Z,100557.70
2018-09-29T11:43:24.351Z,100550.69
2018-09-29T11:45:53.009Z,100542.05
2018-09-29T11:48:21.699Z,100540.09
2018-09-29T11:50:50.422Z,100528.25
2018-09-29T11:53:19.143Z,100518.68
2018-09-29T11:55:47.897Z,100541.56
2018-09-29T11:58:16.685Z,100518.84
2018-09-29T12:00:45.469Z,100520.87
2018-09-29T12:03:14.168Z,100531.57
2018-09-29T12:05:42.987Z,100526.77
2018-09-29T12:08:11.712Z,100518.13
2018-09-29T12:10:40.699Z,100524.89
2018-09-29T12:13:09.433Z,100521.36
2018-09-29T12:15:38.137Z,100548.97
2018-09-29T12:18:06.991Z,100519.58
2018-09-29T12:20:35.828Z,100516.47
2018-09-29T12:23:04.550Z,100522.80
2018-09-29T12:25:33.277Z,100511.78
2018-09-29T12:28:02.027Z,100510.43
2018-09-29T12:30:30.702Z,100500.80
2018-09-29T12:32:59.392Z,100503.02
2018-09-29T12:35:28.086Z,100514.61
2018-09-29T12:37:57.577Z,100509.58
2018-09-29T12:40:26.275Z,100498.82
2018-09-29T12:42:55.107Z,100498.52
2018-09-29T12:45:29.513Z,100497.47
2018-09-29T12:47:58.243Z,100497.76
2018-09-29T12:50:26.911Z,100495.42
2018-09-29T12:52:55.704Z,100485.03
2018-09-29T12:55:24.966Z,100488.05
2018-09-29T12:57:53.696Z,100484.87
2018-09-29T13:00:22.549Z,100481.13
2018-09-29T13:02:51.281Z,100475.02
2018-09-29T13:05:20.140Z,100484.43
2018-09-29T13:07:48.726Z,100498.09
2018-09-29T13:10:17.429Z,100481.44
2018-09-29T13:12:46.198Z,100487.53
2018-09-29T13:15:15.043Z,100493.47
2018-09-29T13:17:43.855Z,100491.41
2018-09-29T13:20:12.661Z,100486.33
2018-09-29T13:22:41.420Z,100490.66
2018-09-29T13:25:10.276Z,100482.92
2018-09-29T13:27:38.964Z,100476.78
2018-09-29T13:30:07.743Z,100471.14
2018-09-29T13:32:36.507Z,100469.79
2018-09-29T13:35:05.263Z,100466.64
2018-09-29T13:37:34.472Z,100468.56
2018-09-29T13:40:03.374Z,100471.59
2018-09-29T13:42:32.112Z,100471.95
2018-09-29T13:45:00.812Z,100472.36
2018-09-29T13:47:29.526Z,100474.41
2018-09-29T13:49:58.285Z,100467.89
2018-09-29T13:52:26.995Z,100464.97
2018-09-29T13:54:56.848Z,100464.14
2018-09-29T13:57:25.622Z,100472.22
2018-09-29T13:59:54.418Z,100468.78
2018-09-29T14:02:23.148Z,100467.31
2018-09-29T14:04:51.868Z,100455.75
2018-09-29T14:07:20.566Z,100456.50
2018-09-29T14:09:49.374Z,100457.42
2018-09-29T14:12:18.186Z,100467.09
2018-09-29T14:14:46.923Z,100462.92
2018-09-29T14:17:15.700Z,100454.70
2018-09-29T14:19:44.483Z,100456.18
2018-09-29T14:22:13.164Z,100446.09
2018-09-29T14:24:41.872Z,100470.66
2018-09-29T14:27:10.692Z,100455.52
2018-09-29T14:29:39.428Z,100448.05
2018-09-29T14:32:08.162Z,100450.27
2018-09-29T14:34:36.922Z,100441.80
2018-09-29T14:37:05.707Z,100447.28
2018-09-29T14:39:34.463Z,100450.10
2018-09-29T14:42:03.329Z,100445.99
2018-09-29T14:44:31.965Z,100458.73
2018-09-29T14:47:00.761Z,100437.33
2018-09-29T14:49:29.484Z,100448.13
2018-09-29T14:51:58.242Z,100443.84
2018-09-29T14:54:26.994Z,100440.69
2018-09-29T14:56:55.706Z,100440.03
2018-09-29T14:59:24.417Z,100443.06
2018-09-29T15:01:53.793Z,100434.09
2018-09-29T15:04:22.685Z,100441.28
2018-09-29T15:06:51.438Z,100444.76
2018-09-29T15:09:20.206Z,100444.53
2018-09-29T15:11:48.962Z,100444.48
2018-09-29T15:14:17.744Z,100453.97
2018-09-29T15:16:46.554Z,100447.88
2018-09-29T15:19:15.290Z,100448.95
2018-09-29T15:21:44.067Z,100447.33
2018-09-29T15:24:12.871Z,100437.45
2018-09-29T15:26:41.619Z,100440.39
2018-09-29T15:29:10.618Z,100435.69
2018-09-29T15:31:39.431Z,100453.18
2018-09-29T15:34:08.347Z,100448.31
2018-09-29T15:36:37.104Z,100454.14
2018-09-29T15:39:08.434Z,100453.20
2018-09-29T15:41:37.159Z,100442.34
2018-09-29T15:44:05.878Z,100452.06
2018-09-29T15:46:34.561Z,100447.50
2018-09-29T15:49:03.896Z,100443.83
2018-09-29T15:51:32.622Z,100444.21
2018-09-29T15:54:01.516Z,100441.23
2018-09-29T15:56:30.294Z,100446.87
2018-09-29T15:58:59.002Z,100444.20
2018-09-29T16:01:27.827Z,100434.20
2018-09-29T16:03:56.551Z,100435.88
2018-09-29T16:06:25.448Z,100436.39
2018-09-29T16:08:54.193Z,100434.23
2018-09-29T16:11:22.912Z,100440.66
2018-09-29T16:13:51.631Z,100448.15
2018-09-29T16:16:20.398Z,100445.91
2018-09-29T16:18:49.176Z,100447.17
2018-09-29T16:21:18.338Z,100441.08
2018-09-29T16:23:47.077Z,100438.95
2018-09-29T16:26:15.869Z,100441.26
2018-09-29T16:28:44.782Z,100443.50
2018-09-29T16:31:13.492Z,100441.44
2018-09-29T16:33:42.344Z,100446.14
2018-09-29T16:36:11.093Z,100446.05
2018-09-29T16:38:39.826Z,100445.41
2018-09-29T16:41:08.629Z,100443.95
2018-09-29T16:43:37.421Z,100447.55
2018-09-29T16:46:06.160Z,100449.97
2018-09-29T16:48:34.921Z,100458.08
2018-09-29T16:51:03.691Z,100454.80
2018-09-29T16:53:32.441Z,100465.69
2018-09-29T16:56:01.159Z,100467.89
2018-09-29T16:58:32.894Z,100462.49
2018-09-29T17:01:01.630Z,100461.73
2018-09-29T17:03:30.631Z,100461.30
2018-09-29T17:06:03.335Z,100463.94
2018-09-29T17:08:32.156Z,100463.31
2018-09-29T17:11:00.885Z,100469.06
2018-09-29T17:13:29.731Z,100470.41
2018-09-29T17:15:58.526Z,100474.74
2018-09-29T17:18:27.178Z,100472.98
2018-09-29T17:20:55.994Z,100475.98
2018-09-29T17:23:24.695Z,100481.52
2018-09-29T17:25:53.416Z,100486.67
2018-09-29T17:28:22.125Z,100482.48
2018-09-29T17:30:50.915Z,100482.91
2018-09-29T17:33:19.879Z,100487.17
2018-09-29T17:35:48.643Z,100482.62
2018-09-29T17:38:17.487Z,100484.85
2018-09-29T17:40:46.230Z,100490.09
2018-09-29T17:43:14.953Z,100484.55
2018-09-29T17:45:43.692Z,100496.16
2018-09-29T17:48:12.509Z,100492.38
2018-09-29T17:50:41.254Z,100496.65
2018-09-29T17:53:10.880Z,100499.23
2018-09-29T17:55:39.647Z,100500.92
2018-09-29T17:58:08.493Z,100503.08
2018-09-29T18:00:37.429Z,100506.12
2018-09-29T18:03:06.149Z,100503.16
2018-09-29T18:05:35.129Z,100504.45
2018-09-29T18:08:03.919Z,100503.19
2018-09-29T18:10:32.697Z,100496.78
2018-09-29T18:13:01.511Z,100503.59
2018-09-29T18:15:30.295Z,100502.32
2018-09-29T18:17:59.120Z,100504.06
2018-09-29T18:20:27.803Z,100503.64
2018-09-29T18:22:56.508Z,100502.34
2018-09-29T18:25:25.241Z,100504.42
2018-09-29T18:27:53.929Z,100504.87
2018-09-29T18:30:22.605Z,100505.30
2018-09-29T18:32:51.325Z,100507.87
2018-09-29T18:35:20.145Z,100510.88
2018-09-29T18:37:48.848Z,100510.45
2018-09-29T18:40:17.579Z,100515.99
2018-09-29T18:42:46.356Z,100513.02
2018-09-29T18:45:15.093Z,100510.05
2018-09-29T18:47:43.823Z,100516.02
2018-09-29T18:50:12.587Z,100515.60
2018-09-29T18:52:41.346Z,100509.61
2018-09-29T18:55:10.294Z,100506.16
2018-09-29T18:57:39.077Z,100505.73
2018-09-29T19:00:08.025Z,100506.95
2018-09-29T19:02:36.740Z,100512.53
2018-09-29T19:05:05.525Z,100507.86
2018-09-29T19:07:34.374Z,100505.75
2018-09-29T19:10:03.205Z,100512.59
2018-09-29T19:12:31.973Z,100514.31
2018-09-29T19:15:00.660Z,100507.50
2018-09-29T19:17:29.346Z,100508.77
2018-09-29T19:19:58.106Z,100512.63
2018-09-29T19:22:26.848Z,100510.91
2018-09-29T19:24:55.570Z,100515.61
2018-09-29T19:27:24.372Z,100512.59
2018-09-29T19:29:53.112Z,100509.62
2018-09-29T19:32:21.831Z,100510.90
2018-09-29T19:34:50.538Z,100514.31
2018-09-29T19:37:19.267Z,100520.72
2018-09-29T19:39:48.020Z,100516.88
2018-09-29T19:42:16.723Z,100518.95
2018-09-29T19:44:45.514Z,100520.23
2018-09-29T19:47:14.864Z,100521.14
2018-09-29T19:49:43.616Z,100524.53
2018-09-29T19:52:12.423Z,100516.03
2018-09-29T19:54:41.809Z,100517.67
2018-09-29T19:57:10.689Z,100521.52
2018-09-29T19:59:39.398Z,100524.45
2018-09-29T20:02:08.148Z,100521.87
2018-09-29T20:04:36.994Z,100514.68
2018-09-29T20:07:05.756Z,100516.82
2018-09-29T20:09:34.474Z,100519.80
2018-09-29T20:12:03.190Z,100520.66
2018-09-29T20:14:31.927Z,100519.77
2018-09-29T20:17:00.719Z,100526.61
2018-09-29T20:19:29.401Z,100524.08
2018-09-29T20:21:58.133Z,100527.91
2018-09-29T20:24:26.844Z,100522.77
2018-09-29T20:26:55.542Z,100528.26
2018-09-29T20:29:24.274Z,100526.95
2018-09-29T20:31:53.005Z,100528.23
2018-09-29T20:34:21.696Z,100522.70
2018-09-29T20:36:50.567Z,100519.70
2018-09-29T20:39:19.341Z,100518.48
2018-09-29T20:41:48.149Z,100523.11
2018-09-29T20:44:16.877Z,100514.91
2018-09-29T20:46:46.049Z,100517.10
2018-09-29T20:49:14.816Z,100511.17
2018-09-29T20:51:43.572Z,100513.72
2018-09-29T20:54:12.309Z,100512.47
2018-09-29T20:56:40.994Z,100515.89
2018-09-29T20:59:09.701Z,100514.17
2018-09-29T21:01:38.483Z,100506.45
2018-09-29T21:04:07.389Z,100507.23
2018-09-29T21:06:36.149Z,100499.88
2018-09-29T21:09:06.027Z,100496.08
2018-09-29T21:11:34.798Z,100496.12
2018-09-29T21:14:03.538Z,100500.86
2018-09-29T21:16:32.256Z,100493.55
2018-09-29T21:19:00.958Z,100492.66
2018-09-29T21:21:29.695Z,100495.98
2018-09-29T21:23:58.415Z,100489.99
2018-09-29T21:26:27.179Z,100489.07
2018-09-29T21:28:55.886Z,100490.79
2018-09-29T21:31:24.579Z,100489.48
2018-09-29T21:33:53.346Z,100496.44
2018-09-29T21:36:22.115Z,100491.65
2018-09-29T21:38:50.779Z,100495.91
2018-09-29T21:41:19.505Z,100503.97
2018-09-29T21:43:48.256Z,100497.55
2018-09-29T21:46:16.970Z,100498.36
2018-09-29T21:48:45.712Z,100495.39
2018-09-29T21:51:14.527Z,100492.42
2018-09-29T21:53:43.203Z,100492.98
2018-09-29T21:56:11.917Z,100500.56
2018-09-29T21:58:40.582Z,100492.90
2018-09-29T22:01:14.521Z,100494.99
2018-09-29T22:03:43.285Z,100499.62
2018-09-29T22:06:11.987Z,100501.20
2018-09-29T22:08:40.686Z,100493.41
2018-09-29T22:11:09.448Z,100489.08
2018-09-29T22:13:38.123Z,100489.41
2018-09-29T22:16:06.967Z,100498.70
2018-09-29T22:18:35.626Z,100491.88
2018-09-29T22:21:04.354Z,100487.61
2018-09-29T22:23:33.107Z,100489.77
2018-09-29T22:26:01.804Z,100485.05
2018-09-29T22:28:30.446Z,100479.10
2018-09-29T22:30:59.125Z,100470.67
2018-09-29T22:33:27.818Z,100468.88
2018-09-29T22:35:56.614Z,100469.26
2018-09-29T22:38:25.383Z,100472.22
2018-09-29T22:40:54.087Z,100464.13
2018-09-29T22:43:22.803Z,100463.23
2018-09-29T22:45:51.547Z,100461.88
2018-09-29T22:48:20.259Z,100454.20
2018-09-29T22:50:49.017Z,100459.67
2018-09-29T22:53:17.719Z,100457.88
2018-09-29T22:55:46.419Z,100456.58
2018-09-29T22:58:15.118Z,100451.52
2018-09-29T23:00:43.857Z,100453.14
2018-09-29T23:03:12.491Z,100450.97
2018-09-29T23:05:41.199Z,100453.10
2018-09-29T23:08:09.944Z,100446.39
2018-09-29T23:10:38.625Z,100437.85
2018-09-29T23:13:12.497Z,100447.37
2018-09-29T23:15:41.202Z,100452.83
2018-09-29T23:18:09.895Z,100451.27
2018-09-29T23:20:38.632Z,100453.37
2018-09-29T23:23:07.355Z,100442.22
2018-09-29T23:25:36.063Z,100439.03
2018-09-29T23:28:04.790Z,100435.23
2018-09-29T23:30:33.495Z,100435.38
2018-09-29T23:33:02.197Z,100428.03
2018-09-29T23:35:30.915Z,100431.77
2018-09-29T23:37:59.620Z,100435.53
2018-09-29T23:40:28.316Z,100441.90
2018-09-29T23:42:57.100Z,100438.11
2018-09-29T23:45:25.806Z,100430.49
2018-09-29T23:47:54.493Z,100435.02
2018-09-29T23:50:23.185Z,100430.81
2018-09-29T23:52:51.900Z,100429.54
2018-09-29T23:55:20.889Z,100432.86
2018-09-29T23:57:49.579Z,100427.22
